sensor_id;sensor_type;location;lat;lon;timestamp;pressure;altitude;pressure_sealevel;temperature;humidity
75627;BME280;67372;49.404;11.034;2023-11-22T00:02:09;98501.31;;;4.68;78.96
75627;BME280;67372;49.404;11.034;2023-11-22T00:04:35;98509.28;;;4.60;79.09
75627;BME280;67372;49.404;11.034;2023-11-22T00:07:01;98510.13;;;4.60;79.70
75627;BME280;67372;49.404;11.034;2023-11-22T00:09:28;98512.94;;;4.59;78.93
75627;BME280;67372;49.404;11.034;2023-11-22T00:11:54;98507.47;;;4.60;79.81
75627;BME280;67372;49.404;11.034;2023-11-22T00:14:21;98520.88;;;4.51;79.64
75627;BME280;67372;49.404;11.034;2023-11-22T00:16:47;98521.03;;;4.49;79.47
75627;BME280;67372;49.404;11.034;2023-11-22T00:19:13;98518.56;;;4.48;79.08
75627;BME280;67372;49.404;11.034;2023-11-22T00:21:40;98515.28;;;4.46;78.42
75627;BME280;67372;49.404;11.034;2023-11-22T00:24:07;98517.56;;;4.49;79.81
75627;BME280;67372;49.404;11.034;2023-11-22T00:26:33;98517.56;;;4.49;79.58
75627;BME280;67372;49.404;11.034;2023-11-22T00:28:59;98516.91;;;4.47;79.10
75627;BME280;67372;49.404;11.034;2023-11-22T00:31:26;98523.38;;;4.44;79.95
75627;BME280;67372;49.404;11.034;2023-11-22T00:33:52;98518.25;;;4.43;79.83
75627;BME280;67372;49.404;11.034;2023-11-22T00:36:19;98532.75;;;4.47;79.73
75627;BME280;67372;49.404;11.034;2023-11-22T00:38:45;98531.47;;;4.43;78.70
75627;BME280;67372;49.404;11.034;2023-11-22T00:41:12;98530.34;;;4.29;78.22
75627;BME280;67372;49.404;11.034;2023-11-22T00:43:38;98527.69;;;4.21;79.40
75627;BME280;67372;49.404;11.034;2023-11-22T00:46:04;98528.53;;;4.29;79.12
75627;BME280;67372;49.404;11.034;2023-11-22T00:48:31;98527.72;;;4.29;78.46
75627;BME280;67372;49.404;11.034;2023-11-22T00:50:58;98533.31;;;4.34;79.07
75627;BME280;67372;49.404;11.034;2023-11-22T00:53:24;98530.84;;;4.32;79.33
75627;BME280;67372;49.404;11.034;2023-11-22T00:55:51;98539.56;;;4.25;78.80
75627;BME280;67372;49.404;11.034;2023-11-22T00:58:17;98545.03;;;4.23;79.14
75627;BME280;67372;49.404;11.034;2023-11-22T01:00:43;98548.50;;;4.24;78.21
75627;BME280;67372;49.404;11.034;2023-11-22T01:03:10;98555.28;;;4.18;78.24
75627;BME280;67372;49.404;11.034;2023-11-22T01:05:37;98557.94;;;4.10;78.60
75627;BME280;67372;49.404;11.034;2023-11-22T01:08:03;98558.59;;;4.04;78.12
75627;BME280;67372;49.404;11.034;2023-11-22T01:10:30;98558.91;;;3.93;77.48
75627;BME280;67372;49.404;11.034;2023-11-22T01:12:56;98573.59;;;3.87;78.14
75627;BME280;67372;49.404;11.034;2023-11-22T01:15:23;98574.44;;;3.80;77.99
75627;BME280;67372;49.404;11.034;2023-11-22T01:17:49;98574.44;;;3.80;77.82
75627;BME280;67372;49.404;11.034;2023-11-22T01:20:16;98569.94;;;3.72;75.51
75627;BME280;67372;49.404;11.034;2023-11-22T01:22:42;98582.16;;;3.73;76.61
75627;BME280;67372;49.404;11.034;2023-11-22T01:25:08;98584.78;;;3.65;76.75
75627;BME280;67372;49.404;11.034;2023-11-22T01:27:35;98583.31;;;3.62;76.35
75627;BME280;67372;49.404;11.034;2023-11-22T01:30:01;98593.84;;;3.62;75.61
75627;BME280;67372;49.404;11.034;2023-11-22T01:32:29;98596.81;;;3.59;75.57
75627;BME280;67372;49.404;11.034;2023-11-22T01:34:55;98599.91;;;3.55;75.43
75627;BME280;67372;49.404;11.034;2023-11-22T01:37:22;98595.78;;;3.52;75.45
75627;BME280;67372;49.404;11.034;2023-11-22T01:39:48;98599.09;;;3.46;74.40
75627;BME280;67372;49.404;11.034;2023-11-22T01:42:15;98597.59;;;3.52;74.73
75627;BME280;67372;49.404;11.034;2023-11-22T01:44:41;98598.78;;;3.57;75.41
75627;BME280;67372;49.404;11.034;2023-11-22T01:47:07;98596.81;;;3.59;75.44
75627;BME280;67372;49.404;11.034;2023-11-22T01:49:34;98596.47;;;3.54;74.96
75627;BME280;67372;49.404;11.034;2023-11-22T01:52:01;98602.38;;;3.48;74.62
75627;BME280;67372;49.404;11.034;2023-11-22T01:54:30;98595.78;;;3.44;74.56
75627;BME280;67372;49.404;11.034;2023-11-22T01:56:58;98592.50;;;3.42;74.83
75627;BME280;67372;49.404;11.034;2023-11-22T01:59:25;98603.84;;;3.43;74.06
75627;BME280;67372;49.404;11.034;2023-11-22T02:01:54;98607.16;;;3.36;74.10
75627;BME280;67372;49.404;11.034;2023-11-22T02:04:20;98615.53;;;3.32;74.82
75627;BME280;67372;49.404;11.034;2023-11-22T02:06:47;98613.41;;;3.35;74.34
75627;BME280;67372;49.404;11.034;2023-11-22T02:09:13;98616.00;;;3.27;74.47
75627;BME280;67372;49.404;11.034;2023-11-22T02:11:40;98612.53;;;3.27;74.29
75627;BME280;67372;49.404;11.034;2023-11-22T02:14:06;98609.88;;;3.19;74.83
75627;BME280;67372;49.404;11.034;2023-11-22T02:16:33;98610.06;;;3.25;75.23
75627;BME280;67372;49.404;11.034;2023-11-22T02:18:59;98617.50;;;3.30;75.27
75627;BME280;67372;49.404;11.034;2023-11-22T02:21:26;98621.75;;;3.23;74.47
75627;BME280;67372;49.404;11.034;2023-11-22T02:23:52;98621.25;;;3.19;74.35
75627;BME280;67372;49.404;11.034;2023-11-22T02:26:19;98629.00;;;3.21;74.97
75627;BME280;67372;49.404;11.034;2023-11-22T02:28:45;98633.13;;;3.23;75.13
75627;BME280;67372;49.404;11.034;2023-11-22T02:31:12;98638.84;;;3.11;74.08
75627;BME280;67372;49.404;11.034;2023-11-22T02:33:38;98636.88;;;3.13;74.89
75627;BME280;67372;49.404;11.034;2023-11-22T02:36:05;98641.31;;;3.12;74.89
75627;BME280;67372;49.404;11.034;2023-11-22T02:38:32;98643.81;;;3.14;74.09
75627;BME280;67372;49.404;11.034;2023-11-22T02:40:58;98647.09;;;3.16;74.73
75627;BME280;67372;49.404;11.034;2023-11-22T02:43:24;98645.28;;;3.16;74.21
75627;BME280;67372;49.404;11.034;2023-11-22T02:45:51;98653.53;;;3.13;74.43
75627;BME280;67372;49.404;11.034;2023-11-22T02:48:17;98644.47;;;3.16;74.49
75627;BME280;67372;49.404;11.034;2023-11-22T02:50:44;98644.78;;;3.13;74.71
75627;BME280;67372;49.404;11.034;2023-11-22T02:53:10;98639.31;;;3.06;75.13
75627;BME280;67372;49.404;11.034;2023-11-22T02:55:37;98649.22;;;3.12;75.47
75627;BME280;67372;49.404;11.034;2023-11-22T02:58:04;98657.31;;;3.11;74.68
75627;BME280;67372;49.404;11.034;2023-11-22T03:00:30;98660.75;;;3.11;74.98
75627;BME280;67372;49.404;11.034;2023-11-22T03:02:57;98656.31;;;3.12;74.85
75627;BME280;67372;49.404;11.034;2023-11-22T03:05:23;98661.38;;;3.05;74.87
75627;BME280;67372;49.404;11.034;2023-11-22T03:07:50;98658.38;;;3.00;75.31
75627;BME280;67372;49.404;11.034;2023-11-22T03:10:17;98663.66;;;3.00;75.62
75627;BME280;67372;49.404;11.034;2023-11-22T03:12:44;98677.81;;;2.99;74.80
75627;BME280;67372;49.404;11.034;2023-11-22T03:15:10;98679.78;;;2.97;74.44
75627;BME280;67372;49.404;11.034;2023-11-22T03:17:37;98679.63;;;2.98;75.11
75627;BME280;67372;49.404;11.034;2023-11-22T03:20:04;98668.72;;;2.93;75.39
75627;BME280;67372;49.404;11.034;2023-11-22T03:22:30;98667.28;;;2.99;75.14
75627;BME280;67372;49.404;11.034;2023-11-22T03:24:57;98670.84;;;2.90;74.94
75627;BME280;67372;49.404;11.034;2023-11-22T03:27:23;98679.34;;;2.84;75.18
75627;BME280;67372;49.404;11.034;2023-11-22T03:29:50;98687.06;;;2.77;75.60
75627;BME280;67372;49.404;11.034;2023-11-22T03:32:16;98695.13;;;2.75;75.27
75627;BME280;67372;49.404;11.034;2023-11-22T03:34:42;98692.50;;;2.75;75.08
75627;BME280;67372;49.404;11.034;2023-11-22T03:37:09;98694.13;;;2.76;75.47
75627;BME280;67372;49.404;11.034;2023-11-22T03:39:35;98695.63;;;2.79;75.90
75627;BME280;67372;49.404;11.034;2023-11-22T03:42:02;98693.50;;;2.83;75.92
75627;BME280;67372;49.404;11.034;2023-11-22T03:44:28;98695.16;;;2.84;75.00
75627;BME280;67372;49.404;11.034;2023-11-22T03:46:55;98699.59;;;2.83;74.86
75627;BME280;67372;49.404;11.034;2023-11-22T03:49:21;98695.88;;;2.86;75.21
75627;BME280;67372;49.404;11.034;2023-11-22T03:51:48;98701.66;;;2.89;74.71
75627;BME280;67372;49.404;11.034;2023-11-22T03:54:14;98703.34;;;2.98;74.44
75627;BME280;67372;49.404;11.034;2023-11-22T03:56:40;98709.06;;;2.94;74.93
75627;BME280;67372;49.404;11.034;2023-11-22T03:59:07;98714.19;;;2.95;74.46
75627;BME280;67372;49.404;11.034;2023-11-22T04:01:34;98721.28;;;2.95;73.41
75627;BME280;67372;49.404;11.034;2023-11-22T04:04:00;98724.06;;;2.93;74.39
75627;BME280;67372;49.404;11.034;2023-11-22T04:06:27;98718.44;;;2.88;74.83
75627;BME280;67372;49.404;11.034;2023-11-22T04:08:53;98726.34;;;2.88;74.40
75627;BME280;67372;49.404;11.034;2023-11-22T04:11:19;98741.00;;;2.91;74.35
75627;BME280;67372;49.404;11.034;2023-11-22T04:13:46;98750.56;;;2.92;73.74
75627;BME280;67372;49.404;11.034;2023-11-22T04:16:13;98735.59;;;2.92;72.54
75627;BME280;67372;49.404;11.034;2023-11-22T04:18:40;98748.59;;;2.94;72.80
75627;BME280;67372;49.404;11.034;2023-11-22T04:21:07;98746.44;;;2.89;71.26
75627;BME280;67372;49.404;11.034;2023-11-22T04:23:34;98749.22;;;2.88;71.16
75627;BME280;67372;49.404;11.034;2023-11-22T04:26:01;98754.50;;;2.88;71.69
75627;BME280;67372;49.404;11.034;2023-11-22T04:28:28;98764.25;;;2.95;71.99
75627;BME280;67372;49.404;11.034;2023-11-22T04:30:56;98768.22;;;2.99;72.09
75627;BME280;67372;49.404;11.034;2023-11-22T04:33:23;98769.41;;;3.05;72.61
75627;BME280;67372;49.404;11.034;2023-11-22T04:35:50;98769.13;;;3.08;72.46
75627;BME280;67372;49.404;11.034;2023-11-22T04:38:17;98777.31;;;3.05;72.40
75627;BME280;67372;49.404;11.034;2023-11-22T04:40:44;98777.28;;;2.97;73.18
75627;BME280;67372;49.404;11.034;2023-11-22T04:43:11;98775.94;;;2.93;73.58
75627;BME280;67372;49.404;11.034;2023-11-22T04:45:37;98781.41;;;2.99;74.06
75627;BME280;67372;49.404;11.034;2023-11-22T04:48:04;98778.91;;;2.98;73.98
75627;BME280;67372;49.404;11.034;2023-11-22T04:50:31;98773.81;;;2.96;74.30
75627;BME280;67372;49.404;11.034;2023-11-22T04:52:58;98777.97;;;2.81;74.54
75627;BME280;67372;49.404;11.034;2023-11-22T04:55:24;98788.44;;;2.73;75.02
75627;BME280;67372;49.404;11.034;2023-11-22T04:57:50;98800.63;;;2.74;75.38
75627;BME280;67372;49.404;11.034;2023-11-22T05:00:17;98800.28;;;2.69;75.75
75627;BME280;67372;49.404;11.034;2023-11-22T05:02:43;98799.28;;;2.70;76.07
75627;BME280;67372;49.404;11.034;2023-11-22T05:05:10;98797.31;;;2.54;76.22
75627;BME280;67372;49.404;11.034;2023-11-22T05:07:37;98796.50;;;2.54;76.19
75627;BME280;67372;49.404;11.034;2023-11-22T05:10:04;98793.34;;;2.50;76.45
75627;BME280;67372;49.404;11.034;2023-11-22T05:12:31;98789.88;;;2.50;76.99
75627;BME280;67372;49.404;11.034;2023-11-22T05:14:58;98788.38;;;2.47;76.81
75627;BME280;67372;49.404;11.034;2023-11-22T05:17:24;98775.97;;;2.39;76.87
75627;BME280;67372;49.404;11.034;2023-11-22T05:19:51;98777.78;;;2.39;76.82
75627;BME280;67372;49.404;11.034;2023-11-22T05:22:17;98778.13;;;2.26;76.76
75627;BME280;67372;49.404;11.034;2023-11-22T05:24:44;98794.22;;;2.23;76.40
75627;BME280;67372;49.404;11.034;2023-11-22T05:27:10;98803.25;;;2.21;76.45
75627;BME280;67372;49.404;11.034;2023-11-22T05:29:36;98812.81;;;2.22;76.62
75627;BME280;67372;49.404;11.034;2023-11-22T05:32:15;98818.44;;;2.27;76.24
75627;BME280;67372;49.404;11.034;2023-11-22T05:34:42;98819.50;;;2.34;76.57
75627;BME280;67372;49.404;11.034;2023-11-22T05:37:08;98820.06;;;2.37;75.57
75627;BME280;67372;49.404;11.034;2023-11-22T05:39:34;98819.22;;;2.37;75.47
75627;BME280;67372;49.404;11.034;2023-11-22T05:42:01;98825.03;;;2.40;75.52
75627;BME280;67372;49.404;11.034;2023-11-22T05:44:27;98841.50;;;2.42;74.73
75627;BME280;67372;49.404;11.034;2023-11-22T05:46:53;98849.69;;;2.39;74.46
75627;BME280;67372;49.404;11.034;2023-11-22T05:49:20;98848.56;;;2.42;74.38
75627;BME280;67372;49.404;11.034;2023-11-22T05:51:46;98854.50;;;2.44;73.35
75627;BME280;67372;49.404;11.034;2023-11-22T05:54:13;98853.06;;;2.50;73.57
75627;BME280;67372;49.404;11.034;2023-11-22T05:56:39;98859.31;;;2.49;72.17
75627;BME280;67372;49.404;11.034;2023-11-22T05:59:06;98854.72;;;2.51;73.57
75627;BME280;67372;49.404;11.034;2023-11-22T06:01:32;98850.81;;;2.55;73.84
75627;BME280;67372;49.404;11.034;2023-11-22T06:03:58;98855.78;;;2.58;73.20
75627;BME280;67372;49.404;11.034;2023-11-22T06:06:25;98860.88;;;2.59;73.58
75627;BME280;67372;49.404;11.034;2023-11-22T06:08:51;98860.66;;;2.53;73.16
75627;BME280;67372;49.404;11.034;2023-11-22T06:11:18;98874.50;;;2.55;73.27
75627;BME280;67372;49.404;11.034;2023-11-22T06:13:44;98878.22;;;2.62;74.31
75627;BME280;67372;49.404;11.034;2023-11-22T06:16:11;98881.00;;;2.60;72.08
75627;BME280;67372;49.404;11.034;2023-11-22T06:18:37;98878.94;;;2.54;71.50
75627;BME280;67372;49.404;11.034;2023-11-22T06:21:03;98885.03;;;2.55;72.66
75627;BME280;67372;49.404;11.034;2023-11-22T06:23:30;98888.34;;;2.57;72.17
75627;BME280;67372;49.404;11.034;2023-11-22T06:25:57;98891.13;;;2.55;72.49
75627;BME280;67372;49.404;11.034;2023-11-22T06:28:23;98898.50;;;2.52;71.27
75627;BME280;67372;49.404;11.034;2023-11-22T06:30:50;98910.03;;;2.51;71.17
75627;BME280;67372;49.404;11.034;2023-11-22T06:33:16;98905.72;;;2.50;70.23
75627;BME280;67372;49.404;11.034;2023-11-22T06:35:43;98921.53;;;2.50;71.95
75627;BME280;67372;49.404;11.034;2023-11-22T06:38:09;98930.25;;;2.50;72.05
75627;BME280;67372;49.404;11.034;2023-11-22T06:40:36;98930.78;;;2.54;72.89
75627;BME280;67372;49.404;11.034;2023-11-22T06:43:02;98939.13;;;2.49;72.86
75627;BME280;67372;49.404;11.034;2023-11-22T06:45:29;98939.22;;;2.57;72.83
75627;BME280;67372;49.404;11.034;2023-11-22T06:47:56;98939.97;;;2.50;72.33
75627;BME280;67372;49.404;11.034;2023-11-22T06:50:22;98933.19;;;2.47;72.83
75627;BME280;67372;49.404;11.034;2023-11-22T06:52:48;98942.44;;;2.51;72.17
75627;BME280;67372;49.404;11.034;2023-11-22T06:55:15;98947.41;;;2.54;73.08
75627;BME280;67372;49.404;11.034;2023-11-22T06:57:41;98949.38;;;2.52;72.87
75627;BME280;67372;49.404;11.034;2023-11-22T07:00:09;98943.88;;;2.45;71.96
75627;BME280;67372;49.404;11.034;2023-11-22T07:02:36;98943.91;;;2.36;72.20
75627;BME280;67372;49.404;11.034;2023-11-22T07:05:03;98959.69;;;2.36;72.46
75627;BME280;67372;49.404;11.034;2023-11-22T07:07:30;98960.66;;;2.35;73.22
75627;BME280;67372;49.404;11.034;2023-11-22T07:09:56;98957.09;;;2.26;72.92
75627;BME280;67372;49.404;11.034;2023-11-22T07:12:25;98954.47;;;2.26;73.34
75627;BME280;67372;49.404;11.034;2023-11-22T07:14:52;98956.97;;;2.28;73.05
75627;BME280;67372;49.404;11.034;2023-11-22T07:17:19;98964.72;;;2.29;72.44
75627;BME280;67372;49.404;11.034;2023-11-22T07:19:45;98968.56;;;2.35;72.92
75627;BME280;67372;49.404;11.034;2023-11-22T07:22:17;98966.50;;;2.38;73.21
75627;BME280;67372;49.404;11.034;2023-11-22T07:24:45;98966.59;;;2.46;73.02
75627;BME280;67372;49.404;11.034;2023-11-22T07:27:12;98975.75;;;2.42;73.12
75627;BME280;67372;49.404;11.034;2023-11-22T07:29:42;98976.28;;;2.46;72.55
75627;BME280;67372;49.404;11.034;2023-11-22T07:32:09;98971.59;;;2.40;72.88
75627;BME280;67372;49.404;11.034;2023-11-22T07:34:37;98976.06;;;2.39;72.47
75627;BME280;67372;49.404;11.034;2023-11-22T07:37:05;98975.75;;;2.42;72.85
75627;BME280;67372;49.404;11.034;2023-11-22T07:39:31;98979.50;;;2.40;73.09
75627;BME280;67372;49.404;11.034;2023-11-22T07:41:58;98998.09;;;2.29;70.79
75627;BME280;67372;49.404;11.034;2023-11-22T07:44:24;98993.97;;;2.26;71.63
75627;BME280;67372;49.404;11.034;2023-11-22T07:46:51;99006.59;;;2.23;69.70
75627;BME280;67372;49.404;11.034;2023-11-22T07:49:19;99003.25;;;2.21;71.19
75627;BME280;67372;49.404;11.034;2023-11-22T07:51:45;99001.03;;;2.26;71.40
75627;BME280;67372;49.404;11.034;2023-11-22T07:54:13;99009.31;;;2.31;71.58
75627;BME280;67372;49.404;11.034;2023-11-22T07:56:39;99006.66;;;2.40;70.99
75627;BME280;67372;49.404;11.034;2023-11-22T07:59:05;99014.38;;;2.52;70.41
75627;BME280;67372;49.404;11.034;2023-11-22T08:01:32;99011.34;;;2.46;70.07
75627;BME280;67372;49.404;11.034;2023-11-22T08:03:58;99027.28;;;2.45;70.37
75627;BME280;67372;49.404;11.034;2023-11-22T08:06:25;99038.13;;;2.42;71.87
75627;BME280;67372;49.404;11.034;2023-11-22T08:08:51;99024.41;;;2.38;72.01
75627;BME280;67372;49.404;11.034;2023-11-22T08:11:19;99036.59;;;2.39;72.51
75627;BME280;67372;49.404;11.034;2023-11-22T08:13:46;99031.88;;;2.43;73.12
75627;BME280;67372;49.404;11.034;2023-11-22T08:16:12;99030.91;;;2.44;72.96
75627;BME280;67372;49.404;11.034;2023-11-22T08:18:40;99024.25;;;2.40;72.83
75627;BME280;67372;49.404;11.034;2023-11-22T08:21:06;99042.69;;;2.40;73.27
75627;BME280;67372;49.404;11.034;2023-11-22T08:23:33;99043.53;;;2.40;73.53
75627;BME280;67372;49.404;11.034;2023-11-22T08:25:59;99046.53;;;2.45;73.01
75627;BME280;67372;49.404;11.034;2023-11-22T08:28:26;99052.75;;;2.54;72.45
75627;BME280;67372;49.404;11.034;2023-11-22T08:30:52;99052.31;;;2.59;71.90
75627;BME280;67372;49.404;11.034;2023-11-22T08:33:19;99046.66;;;2.54;71.83
75627;BME280;67372;49.404;11.034;2023-11-22T08:35:45;99051.09;;;2.53;72.53
75627;BME280;67372;49.404;11.034;2023-11-22T08:38:12;99048.44;;;2.63;71.93
75627;BME280;67372;49.404;11.034;2023-11-22T08:40:38;99049.41;;;2.62;71.76
75627;BME280;67372;49.404;11.034;2023-11-22T08:43:05;99053.00;;;2.61;71.61
75627;BME280;67372;49.404;11.034;2023-11-22T08:45:32;99055.75;;;2.69;71.57
75627;BME280;67372;49.404;11.034;2023-11-22T08:47:58;99053.09;;;2.69;70.93
75627;BME280;67372;49.404;11.034;2023-11-22T08:50:25;99048.28;;;2.64;71.17
75627;BME280;67372;49.404;11.034;2023-11-22T08:52:51;99057.94;;;2.73;72.16
75627;BME280;67372;49.404;11.034;2023-11-22T08:55:21;99062.09;;;2.76;71.01
75627;BME280;67372;49.404;11.034;2023-11-22T08:57:48;99061.16;;;2.67;71.04
75627;BME280;67372;49.404;11.034;2023-11-22T09:00:15;99074.72;;;2.72;70.60
75627;BME280;67372;49.404;11.034;2023-11-22T09:02:41;99067.50;;;2.74;70.52
75627;BME280;67372;49.404;11.034;2023-11-22T09:05:08;99067.34;;;2.76;70.28
75627;BME280;67372;49.404;11.034;2023-11-22T09:07:35;99058.19;;;2.80;70.35
75627;BME280;67372;49.404;11.034;2023-11-22T09:10:03;99058.97;;;2.90;70.24
75627;BME280;67372;49.404;11.034;2023-11-22T09:12:29;99068.16;;;2.86;69.50
75627;BME280;67372;49.404;11.034;2023-11-22T09:14:55;99070.50;;;2.89;69.49
75627;BME280;67372;49.404;11.034;2023-11-22T09:17:22;99070.09;;;2.84;69.71
75627;BME280;67372;49.404;11.034;2023-11-22T09:19:50;99071.06;;;2.83;70.40
75627;BME280;67372;49.404;11.034;2023-11-22T09:22:17;99067.84;;;2.89;70.11
75627;BME280;67372;49.404;11.034;2023-11-22T09:24:43;99064.28;;;2.81;69.27
75627;BME280;67372;49.404;11.034;2023-11-22T09:27:10;99063.75;;;2.77;69.92
75627;BME280;67372;49.404;11.034;2023-11-22T09:29:37;99064.31;;;2.71;70.00
75627;BME280;67372;49.404;11.034;2023-11-22T09:32:04;99067.25;;;2.68;69.41
75627;BME280;67372;49.404;11.034;2023-11-22T09:34:31;99062.84;;;2.59;69.71
75627;BME280;67372;49.404;11.034;2023-11-22T09:36:57;99075.31;;;2.57;70.92
75627;BME280;67372;49.404;11.034;2023-11-22T09:39:24;99070.47;;;2.62;70.50
75627;BME280;67372;49.404;11.034;2023-11-22T09:41:51;99067.09;;;2.69;70.56
75627;BME280;67372;49.404;11.034;2023-11-22T09:44:17;99064.88;;;2.74;70.26
75627;BME280;67372;49.404;11.034;2023-11-22T09:46:44;99071.63;;;2.77;69.85
75627;BME280;67372;49.404;11.034;2023-11-22T09:49:19;99074.72;;;2.72;69.97
75627;BME280;67372;49.404;11.034;2023-11-22T09:51:46;99078.63;;;2.68;70.18
75627;BME280;67372;49.404;11.034;2023-11-22T09:54:17;99084.72;;;2.69;70.39
75627;BME280;67372;49.404;11.034;2023-11-22T09:56:45;99094.28;;;2.70;70.88
75627;BME280;67372;49.404;11.034;2023-11-22T09:59:13;99101.50;;;2.68;70.54
75627;BME280;67372;49.404;11.034;2023-11-22T10:01:40;99104.53;;;2.73;70.74
75627;BME280;67372;49.404;11.034;2023-11-22T10:04:07;99111.63;;;2.63;70.25
75627;BME280;67372;49.404;11.034;2023-11-22T10:06:34;99116.31;;;2.69;70.51
75627;BME280;67372;49.404;11.034;2023-11-22T10:09:02;99113.09;;;2.75;70.34
75627;BME280;67372;49.404;11.034;2023-11-22T10:11:31;99115.59;;;2.76;71.09
75627;BME280;67372;49.404;11.034;2023-11-22T10:13:57;99130.56;;;2.76;70.30
75627;BME280;67372;49.404;11.034;2023-11-22T10:16:24;99121.09;;;2.83;70.60
75627;BME280;67372;49.404;11.034;2023-11-22T10:18:50;99132.81;;;2.71;70.37
75627;BME280;67372;49.404;11.034;2023-11-22T10:21:22;99136.41;;;2.70;70.56
75627;BME280;67372;49.404;11.034;2023-11-22T10:23:55;99126.19;;;2.67;70.25
75627;BME280;67372;49.404;11.034;2023-11-22T10:26:23;99127.84;;;2.68;70.99
75627;BME280;67372;49.404;11.034;2023-11-22T10:28:50;99130.19;;;2.71;70.88
75627;BME280;67372;49.404;11.034;2023-11-22T10:31:18;99128.09;;;2.74;70.52
75627;BME280;67372;49.404;11.034;2023-11-22T10:33:45;99133.09;;;2.68;70.70
75627;BME280;67372;49.404;11.034;2023-11-22T10:36:13;99121.19;;;2.64;70.40
75627;BME280;67372;49.404;11.034;2023-11-22T10:38:39;99128.00;;;2.57;70.44
75627;BME280;67372;49.404;11.034;2023-11-22T10:41:07;99127.59;;;2.61;70.51
75627;BME280;67372;49.404;11.034;2023-11-22T10:43:37;99129.78;;;2.56;70.39
75627;BME280;67372;49.404;11.034;2023-11-22T10:46:04;99128.13;;;2.55;70.93
75627;BME280;67372;49.404;11.034;2023-11-22T10:48:32;99123.97;;;2.62;70.97
75627;BME280;67372;49.404;11.034;2023-11-22T10:51:03;99104.38;;;2.74;70.40
75627;BME280;67372;49.404;11.034;2023-11-22T10:53:36;99103.09;;;2.88;70.44
75627;BME280;67372;49.404;11.034;2023-11-22T10:56:14;99112.38;;;2.83;69.52
75627;BME280;67372;49.404;11.034;2023-11-22T10:58:50;99108.34;;;2.88;69.85
75627;BME280;67372;49.404;11.034;2023-11-22T11:01:17;99107.84;;;2.75;69.68
75627;BME280;67372;49.404;11.034;2023-11-22T11:03:46;99107.44;;;2.70;69.30
75627;BME280;67372;49.404;11.034;2023-11-22T11:06:20;99107.69;;;2.86;69.69
75627;BME280;67372;49.404;11.034;2023-11-22T11:08:48;99112.13;;;2.86;68.65
75627;BME280;67372;49.404;11.034;2023-11-22T11:11:15;99110.41;;;2.94;69.67
75627;BME280;67372;49.404;11.034;2023-11-22T11:13:45;99120.22;;;3.02;70.15
75627;BME280;67372;49.404;11.034;2023-11-22T11:16:12;99126.97;;;3.14;69.07
75627;BME280;67372;49.404;11.034;2023-11-22T11:18:39;99132.63;;;3.19;68.85
75627;BME280;67372;49.404;11.034;2023-11-22T11:21:08;99129.38;;;3.25;69.25
75627;BME280;67372;49.404;11.034;2023-11-22T11:23:35;99119.50;;;3.37;69.48
75627;BME280;67372;49.404;11.034;2023-11-22T11:26:14;99132.91;;;3.44;69.00
75627;BME280;67372;49.404;11.034;2023-11-22T11:28:46;99136.59;;;3.51;68.76
75627;BME280;67372;49.404;11.034;2023-11-22T11:31:15;99142.03;;;3.49;67.33
75627;BME280;67372;49.404;11.034;2023-11-22T11:38:52;99147.19;;;3.68;66.33
75627;BME280;67372;49.404;11.034;2023-11-22T11:41:24;99142.59;;;3.70;67.03
75627;BME280;67372;49.404;11.034;2023-11-22T11:43:51;99151.94;;;3.65;65.89
75627;BME280;67372;49.404;11.034;2023-11-22T11:46:21;99155.25;;;3.67;66.48
75627;BME280;67372;49.404;11.034;2023-11-22T11:48:48;99156.75;;;3.69;67.50
75627;BME280;67372;49.404;11.034;2023-11-22T11:51:16;99156.91;;;3.68;66.65
75627;BME280;67372;49.404;11.034;2023-11-22T11:53:44;99159.63;;;3.58;66.07
75627;BME280;67372;49.404;11.034;2023-11-22T11:56:11;99157.97;;;3.57;66.65
75627;BME280;67372;49.404;11.034;2023-11-22T11:58:38;99161.47;;;3.48;66.23
75627;BME280;67372;49.404;11.034;2023-11-22T12:01:08;99161.75;;;3.45;67.08
75627;BME280;67372;49.404;11.034;2023-11-22T12:03:38;99158.38;;;3.53;68.31
75627;BME280;67372;49.404;11.034;2023-11-22T12:06:06;99147.13;;;3.60;66.63
75627;BME280;67372;49.404;11.034;2023-11-22T12:08:33;99159.41;;;3.69;67.55
75627;BME280;67372;49.404;11.034;2023-11-22T12:11:00;99178.25;;;3.57;65.92
75627;BME280;67372;49.404;11.034;2023-11-22T12:13:26;99180.28;;;3.63;67.20
75627;BME280;67372;49.404;11.034;2023-11-22T12:15:52;99195.59;;;3.77;67.31
75627;BME280;67372;49.404;11.034;2023-11-22T12:18:19;99195.81;;;3.66;66.09
75627;BME280;67372;49.404;11.034;2023-11-22T12:20:56;99189.31;;;3.60;66.70
75627;BME280;67372;49.404;11.034;2023-11-22T12:23:24;99193.31;;;3.64;66.35
75627;BME280;67372;49.404;11.034;2023-11-22T12:25:56;99197.53;;;3.57;65.68
75627;BME280;67372;49.404;11.034;2023-11-22T12:28:26;99184.88;;;3.61;67.56
75627;BME280;67372;49.404;11.034;2023-11-22T12:30:53;99184.28;;;3.67;67.30
75627;BME280;67372;49.404;11.034;2023-11-22T12:33:20;99182.31;;;3.69;66.32
75627;BME280;67372;49.404;11.034;2023-11-22T12:35:47;99179.38;;;3.72;65.87
75627;BME280;67372;49.404;11.034;2023-11-22T12:38:14;99183.22;;;3.60;65.98
75627;BME280;67372;49.404;11.034;2023-11-22T12:40:46;99181.28;;;3.52;66.58
75627;BME280;67372;49.404;11.034;2023-11-22T12:43:13;99177.16;;;3.50;66.39
75627;BME280;67372;49.404;11.034;2023-11-22T12:45:40;99172.97;;;3.57;66.36
75627;BME280;67372;49.404;11.034;2023-11-22T12:48:20;99180.91;;;3.47;66.80
75627;BME280;67372;49.404;11.034;2023-11-22T12:50:47;99183.31;;;3.41;66.75
75627;BME280;67372;49.404;11.034;2023-11-22T12:53:15;99188.91;;;3.28;66.39
75627;BME280;67372;49.404;11.034;2023-11-22T12:55:43;99184.50;;;3.19;66.52
75627;BME280;67372;49.404;11.034;2023-11-22T12:58:10;99179.28;;;3.09;67.86
75627;BME280;67372;49.404;11.034;2023-11-22T13:00:37;99176.91;;;3.06;67.43
75627;BME280;67372;49.404;11.034;2023-11-22T13:03:03;99172.38;;;2.98;68.21
75627;BME280;67372;49.404;11.034;2023-11-22T13:05:30;99180.03;;;2.82;67.97